Time,TemperatureF,DewpointF,PressureIn,WindDirection,WindDirectionDegrees,WindSpeedMPH,WindSpeedGustMPH,Humidity,HourlyPrecipIn,Conditions,Clouds,dailyrainin,SolarRadiationWatts/m^2,SoftwareType,DateUTC
2013-09-21 00:00:00,66.9,65.7,29.68,ENE,66,0.0,1.0,96,0.00,,SKC,3.32,0.00,VWS V14.01,2013-09-21 05:00:00,
2013-09-21 00:02:00,66.9,65.7,29.68,ENE,66,0.0,0.0,96,0.00,,SKC,0.00,0.00,VWS V14.01,2013-09-21 05:02:00,
2013-09-21 00:07:00,66.8,65.6,29.68,ENE,66,0.0,1.0,96,0.00,,SKC,0.00,0.00,VWS V14.01,2013-09-21 05:07:00,
2013-09-21 00:10:00,66.6,65.4,29.68,ENE,66,0.0,1.0,96,0.00,,SKC,0.00,0.00,VWS V14.01,2013-09-21 05:10:00,
2013-09-21 00:12:00,66.6,65.4,29.68,ENE,66,0.0,0.0,96,0.00,,SKC,0.00,0.00,VWS V14.01,2013-09-21 05:12:00,
2013-09-21 00:17:00,66.6,65.4,29.67,ENE,66,0.0,0.0,96,0.00,,SKC,0.00,0.00,VWS V14.01,2013-09-21 05:17:00,
2013-09-21 00:20:00,66.5,65.3,29.68,ENE,66,0.0,0.0,96,0.00,,SKC,0.00,0.00,VWS V14.01,2013-09-21 05:20:00,
2013-09-21 00:22:00,66.5,65.3,29.68,ENE,66,0.0,0.0,96,0.00,,SKC,0.00,0.00,VWS V14.01,2013-09-21 05:22:00,
2013-09-21 00:27:00,66.3,65.1,29.68,ENE,66,0.0,1.0,96,0.00,,SKC,0.00,0.00,VWS V14.01,2013-09-21 05:27:00,
2013-09-21 00:30:00,66.3,65.1,29.68,ENE,66,0.0,1.0,96,0.00,,SKC,0.00,0.00,VWS V14.01,2013-09-21 05:30:00,
2013-09-21 00:32:00,66.3,65.1,29.68,ENE,66,0.0,0.0,96,0.00,,SKC,0.00,0.00,VWS V14.01,2013-09-21 05:32:00,
2013-09-21 00:37:00,66.2,65.0,29.69,ENE,66,0.0,1.0,96,0.00,,SKC,0.00,0.00,VWS V14.01,2013-09-21 05:37:00,
2013-09-21 00:40:00,66.2,65.0,29.69,ENE,66,0.0,1.0,96,0.00,,SKC,0.00,0.00,VWS V14.01,2013-09-21 05:40:00,
2013-09-21 00:42:00,66.2,65.0,29.69,ENE,66,0.0,0.0,96,0.00,,SKC,0.00,0.00,VWS V14.01,2013-09-21 05:42:00,
2013-09-21 00:47:00,66.2,65.0,29.69,ENE,66,0.0,1.0,96,0.00,,SKC,0.00,0.00,VWS V14.01,2013-09-21 05:47:00,
2013-09-21 00:50:00,66.2,65.0,29.69,ENE,66,0.0,3.0,96,0.00,,SKC,0.00,0.00,VWS V14.01,2013-09-21 05:50:00,
2013-09-21 00:52:00,66.2,65.0,29.69,ENE,66,2.0,2.0,96,0.00,,SKC,0.00,0.00,VWS V14.01,2013-09-21 05:52:00,
2013-09-21 00:57:00,66.2,65.0,29.68,ENE,66,0.0,3.0,96,0.00,,SKC,0.00,0.00,VWS V14.01,2013-09-21 05:57:00,
2013-09-21 01:00:00,66.2,65.0,29.68,ENE,66,5.0,5.0,96,0.00,,SKC,0.00,0.00,VWS V14.01,2013-09-21 06:00:00,
2013-09-21 01:02:00,66.2,65.0,29.68,ENE,66,5.0,5.0,96,0.00,,SKC,0.00,0.00,VWS V14.01,2013-09-21 06:02:00,
2013-09-21 01:07:00,66.2,65.0,29.68,ENE,66,3.0,6.0,96,0.00,,SKC,0.00,0.00,VWS V14.01,2013-09-21 06:07:00,
2013-09-21 01:10:00,66.3,65.1,29.68,ENE,66,0.0,6.0,96,0.00,,SKC,0.00,0.00,VWS V14.01,2013-09-21 06:10:00,
2013-09-21 01:11:00,66.3,65.1,29.68,ENE,66,0.0,6.0,96,0.00,,SKC,0.00,0.00,VWS V14.01,2013-09-21 06:11:00,
2013-09-21 01:16:00,66.3,65.1,29.68,ENE,66,1.0,3.0,96,0.00,,SKC,0.00,0.00,VWS V14.01,2013-09-21 06:16:00,
2013-09-21 01:20:00,66.3,65.1,29.68,ENE,66,0.0,6.0,96,0.00,,SKC,0.00,0.00,VWS V14.01,2013-09-21 06:20:00,
2013-09-21 01:21:00,66.3,65.1,29.68,ENE,66,0.0,6.0,96,0.00,,SKC,0.00,0.00,VWS V14.01,2013-09-21 06:21:00,
2013-09-21 01:26:00,66.3,65.1,29.68,ENE,66,0.0,3.0,96,0.00,,SKC,0.00,0.00,VWS V14.01,2013-09-21 06:26:00,
2013-09-21 01:30:00,66.4,65.5,29.68,ENE,66,0.0,4.0,97,0.00,,SKC,0.00,0.00,VWS V14.01,2013-09-21 06:30:00,
2013-09-21 01:31:00,66.4,65.5,29.68,ENE,66,0.0,4.0,97,0.00,,SKC,0.00,0.00,VWS V14.01,2013-09-21 06:31:00,
2013-09-21 01:36:00,66.5,65.6,29.68,ENE,66,3.0,4.0,97,0.00,,SKC,0.00,0.00,VWS V14.01,2013-09-21 06:36:00,
2013-09-21 01:40:00,66.5,65.6,29.68,ENE,66,0.0,4.0,97,0.00,,SKC,0.00,0.00,VWS V14.01,2013-09-21 06:40:00,
2013-09-21 01:41:00,66.5,65.6,29.68,ENE,66,0.0,4.0,97,0.00,,SKC,0.00,0.00,VWS V14.01,2013-09-21 06:41:00,
2013-09-21 01:46:00,66.6,65.4,29.69,ENE,66,0.0,4.0,96,0.00,,SKC,0.00,0.00,VWS V14.01,2013-09-21 06:46:00,
2013-09-21 01:50:00,66.6,65.4,29.69,ENE,66,1.0,4.0,96,0.00,,SKC,0.00,0.00,VWS V14.01,2013-09-21 06:50:00,
2013-09-21 01:51:00,66.6,65.4,29.69,ENE,66,1.0,4.0,96,0.00,,SKC,0.00,0.00,VWS V14.01,2013-09-21 06:51:00,
2013-09-21 01:56:00,66.7,65.5,29.69,ENE,66,0.0,1.0,96,0.00,,SKC,0.00,0.00,VWS V14.01,2013-09-21 06:56:00,
2013-09-21 02:00:00,66.7,65.5,29.69,ENE,66,0.0,4.0,96,0.00,,SKC,0.00,0.00,VWS V14.01,2013-09-21 07:00:00,
2013-09-21 02:01:00,66.7,65.5,29.69,ENE,66,0.0,4.0,96,0.00,,SKC,0.00,0.00,VWS V14.01,2013-09-21 07:01:00,
2013-09-21 02:06:00,66.7,65.5,29.69,ENE,66,0.0,0.0,96,0.00,,SKC,0.00,0.00,VWS V14.01,2013-09-21 07:06:00,
2013-09-21 02:10:00,66.7,65.5,29.69,ENE,66,0.0,1.0,96,0.00,,SKC,0.00,0.00,VWS V14.01,2013-09-21 07:10:00,
2013-09-21 02:11:00,66.7,65.5,29.69,ENE,66,0.0,1.0,96,0.00,,SKC,0.00,0.00,VWS V14.01,2013-09-21 07:11:00,
2013-09-21 02:16:00,66.7,65.5,29.69,ENE,66,0.0,0.0,96,0.00,,SKC,0.00,0.00,VWS V14.01,2013-09-21 07:16:00,
2013-09-21 02:20:00,66.7,65.5,29.69,ENE,66,1.0,2.0,96,0.00,,SKC,0.00,0.00,VWS V14.01,2013-09-21 07:20:00,
2013-09-21 02:21:00,66.7,65.5,29.69,ENE,66,0.0,2.0,96,0.00,,SKC,0.00,0.00,VWS V14.01,2013-09-21 07:21:00,
2013-09-21 02:26:00,66.8,65.6,29.69,ENE,66,0.0,3.0,96,0.00,,SKC,0.00,0.00,VWS V14.01,2013-09-21 07:26:00,
2013-09-21 02:30:00,66.8,65.6,29.69,ENE,66,0.0,4.0,96,0.00,,SKC,0.00,0.00,VWS V14.01,2013-09-21 07:30:00,
2013-09-21 02:31:00,66.8,65.6,29.69,ENE,66,0.0,4.0,96,0.00,,SKC,0.00,0.00,VWS V14.01,2013-09-21 07:31:00,
2013-09-21 02:36:00,66.8,65.6,29.68,ENE,66,2.0,4.0,96,0.00,,SKC,0.00,0.00,VWS V14.01,2013-09-21 07:36:00,
2013-09-21 02:40:00,66.8,65.6,29.68,ENE,66,0.0,4.0,96,0.00,,SKC,0.00,0.00,VWS V14.01,2013-09-21 07:40:00,
2013-09-21 02:41:00,66.8,65.6,29.68,ENE,66,1.0,4.0,96,0.00,,SKC,0.00,0.00,VWS V14.01,2013-09-21 07:41:00,
2013-09-21 02:46:00,66.8,65.6,29.68,ENE,66,0.0,3.0,96,0.00,,SKC,0.00,0.00,VWS V14.01,2013-09-21 07:46:00,
2013-09-21 02:50:00,66.8,65.6,29.68,ENE,66,0.0,3.0,96,0.00,,SKC,0.00,0.00,VWS V14.01,2013-09-21 07:50:00,
2013-09-21 02:51:00,66.8,65.6,29.68,ENE,66,0.0,3.0,96,0.00,,SKC,0.00,0.00,VWS V14.01,2013-09-21 07:51:00,
2013-09-21 02:56:00,66.8,65.6,29.69,ENE,66,2.0,2.0,96,0.00,,SKC,0.00,0.00,VWS V14.01,2013-09-21 07:56:00,
2013-09-21 03:00:00,66.8,65.6,29.68,ENE,66,0.0,3.0,96,0.00,,SKC,0.00,0.00,VWS V14.01,2013-09-21 08:00:00,
2013-09-21 03:01:00,66.8,65.6,29.68,ENE,66,0.0,3.0,96,0.00,,SKC,0.00,0.00,VWS V14.01,2013-09-21 08:01:00,
2013-09-21 03:06:00,66.8,65.6,29.69,ENE,66,0.0,1.0,96,0.00,,SKC,0.00,0.00,VWS V14.01,2013-09-21 08:06:00,
2013-09-21 03:10:00,66.7,65.5,29.68,ENE,66,0.0,4.0,96,0.00,,SKC,0.00,0.00,VWS V14.01,2013-09-21 08:10:00,
2013-09-21 03:11:00,66.7,65.5,29.68,ENE,66,0.0,4.0,96,0.00,,SKC,0.00,0.00,VWS V14.01,2013-09-21 08:11:00,
2013-09-21 03:16:00,66.7,65.5,29.69,ENE,66,0.0,2.0,96,0.00,,SKC,0.00,0.00,VWS V14.01,2013-09-21 08:16:00,
2013-09-21 03:20:00,66.8,65.6,29.68,ENE,66,0.0,2.0,96,0.00,,SKC,0.00,0.00,VWS V14.01,2013-09-21 08:20:00,
2013-09-21 03:21:00,66.8,65.6,29.68,ENE,66,0.0,2.0,96,0.00,,SKC,0.00,0.00,VWS V14.01,2013-09-21 08:21:00,
2013-09-21 03:26:00,66.7,65.5,29.69,ENE,66,3.0,4.0,96,0.00,,SKC,0.00,0.00,VWS V14.01,2013-09-21 08:26:00,
2013-09-21 03:30:00,66.7,65.5,29.68,ENE,66,0.0,4.0,96,0.00,,SKC,0.00,0.00,VWS V14.01,2013-09-21 08:30:00,
2013-09-21 03:31:00,66.7,65.5,29.68,ENE,66,0.0,4.0,96,0.00,,SKC,0.00,0.00,VWS V14.01,2013-09-21 08:31:00,
2013-09-21 03:37:00,66.7,65.5,29.68,ENE,66,0.0,0.0,96,0.00,,SKC,0.00,0.00,VWS V14.01,2013-09-21 08:37:00,
2013-09-21 03:40:00,66.7,65.5,29.69,ENE,66,0.0,0.0,96,0.00,,SKC,0.00,0.00,VWS V14.01,2013-09-21 08:40:00,
2013-09-21 03:42:00,66.7,65.5,29.68,ENE,66,0.0,0.0,96,0.00,,SKC,0.00,0.00,VWS V14.01,2013-09-21 08:42:00,
2013-09-21 03:47:00,66.7,65.5,29.68,ENE,66,0.0,0.0,96,0.00,,SKC,0.00,0.00,VWS V14.01,2013-09-21 08:47:00,
2013-09-21 03:50:00,66.6,65.4,29.68,ENE,66,0.0,2.0,96,0.00,,SKC,0.00,0.00,VWS V14.01,2013-09-21 08:50:00,
2013-09-21 03:52:00,66.6,65.4,29.68,ENE,66,0.0,0.0,96,0.00,,SKC,0.00,0.00,VWS V14.01,2013-09-21 08:52:00,
2013-09-21 03:57:00,66.6,65.4,29.69,ENE,66,0.0,0.0,96,0.00,,SKC,0.00,0.00,VWS V14.01,2013-09-21 08:57:00,
2013-09-21 04:00:00,66.7,65.5,29.69,ENE,66,0.0,1.0,96,0.00,,SKC,0.00,0.00,VWS V14.01,2013-09-21 09:00:00,
2013-09-21 04:01:00,66.7,65.5,29.69,ENE,66,0.0,1.0,96,0.00,,SKC,0.00,0.00,VWS V14.01,2013-09-21 09:01:00,
2013-09-21 04:06:00,66.6,65.4,29.69,ENE,66,0.0,0.0,96,0.00,,SKC,0.00,0.00,VWS V14.01,2013-09-21 09:06:00,
2013-09-21 04:10:00,66.7,65.5,29.69,ENE,66,1.0,4.0,96,0.00,,SKC,0.00,0.00,VWS V14.01,2013-09-21 09:10:00,
2013-09-21 04:11:00,66.7,65.5,29.69,ENE,66,1.0,4.0,96,0.00,,SKC,0.00,0.00,VWS V14.01,2013-09-21 09:11:00,
2013-09-21 04:16:00,66.7,65.5,29.68,ENE,66,0.0,4.0,96,0.00,,SKC,0.00,0.00,VWS V14.01,2013-09-21 09:16:00,
2013-09-21 04:20:00,66.7,65.5,29.69,ENE,66,2.0,6.0,96,0.00,,SKC,0.00,0.00,VWS V14.01,2013-09-21 09:20:00,
2013-09-21 04:21:00,66.7,65.5,29.69,ENE,66,2.0,6.0,96,0.00,,SKC,0.00,0.00,VWS V14.01,2013-09-21 09:21:00,
2013-09-21 04:26:00,66.7,65.5,29.68,ENE,66,2.0,4.0,96,0.00,,SKC,0.00,0.00,VWS V14.01,2013-09-21 09:26:00,
2013-09-21 04:30:00,66.6,65.4,29.69,ENE,66,2.0,4.0,96,0.00,,SKC,0.00,0.00,VWS V14.01,2013-09-21 09:30:00,
2013-09-21 04:31:00,66.6,65.4,29.69,ENE,66,2.0,4.0,96,0.00,,SKC,0.00,0.00,VWS V14.01,2013-09-21 09:31:00,
2013-09-21 04:36:00,66.6,65.4,29.68,ENE,66,0.0,3.0,96,0.00,,SKC,0.00,0.00,VWS V14.01,2013-09-21 09:36:00,
2013-09-21 04:40:00,66.6,65.4,29.69,ENE,66,0.0,3.0,96,0.00,,SKC,0.00,0.00,VWS V14.01,2013-09-21 09:40:00,
2013-09-21 04:41:00,66.6,65.4,29.69,ENE,66,0.0,3.0,96,0.00,,SKC,0.00,0.00,VWS V14.01,2013-09-21 09:41:00,
2013-09-21 04:46:00,66.5,65.3,29.68,ENE,66,2.0,5.0,96,0.00,,SKC,0.00,0.00,VWS V14.01,2013-09-21 09:46:00,
2013-09-21 04:50:00,66.5,65.0,29.68,ENE,66,2.0,5.0,95,0.00,,SKC,0.00,0.00,VWS V14.01,2013-09-21 09:50:00,
2013-09-21 04:51:00,66.5,65.0,29.68,ENE,66,2.0,5.0,95,0.00,,SKC,0.00,0.00,VWS V14.01,2013-09-21 09:51:00,
2013-09-21 04:56:00,66.5,65.0,29.69,ENE,66,0.0,4.0,95,0.00,,SKC,0.00,0.00,VWS V14.01,2013-09-21 09:56:00,
2013-09-21 05:00:00,66.4,64.9,29.68,ENE,66,2.0,4.0,95,0.00,,SKC,0.00,0.00,VWS V14.01,2013-09-21 10:00:00,
2013-09-21 05:01:00,66.4,64.9,29.68,ENE,66,2.0,4.0,95,0.00,,SKC,0.00,0.00,VWS V14.01,2013-09-21 10:01:00,
2013-09-21 05:06:00,66.4,64.9,29.68,ENE,66,3.0,4.0,95,0.00,,SKC,0.00,0.00,VWS V14.01,2013-09-21 10:06:00,
2013-09-21 05:10:00,66.4,64.9,29.68,ENE,66,1.0,6.0,95,0.00,,SKC,0.00,0.00,VWS V14.01,2013-09-21 10:10:00,
2013-09-21 05:11:00,66.4,64.9,29.68,ENE,66,2.0,6.0,95,0.00,,SKC,0.00,0.00,VWS V14.01,2013-09-21 10:11:00,
2013-09-21 05:16:00,66.3,64.8,29.68,ENE,66,2.0,4.0,95,0.00,,SKC,0.00,0.00,VWS V14.01,2013-09-21 10:16:00,
2013-09-21 05:20:00,66.2,64.7,29.69,ENE,66,0.0,4.0,95,0.00,,SKC,0.00,0.00,VWS V14.01,2013-09-21 10:20:00,
2013-09-21 05:21:00,66.3,64.8,29.69,ENE,66,0.0,4.0,95,0.00,,SKC,0.00,0.00,VWS V14.01,2013-09-21 10:21:00,
2013-09-21 05:26:00,66.2,64.7,29.69,ENE,66,2.0,3.0,95,0.00,,SKC,0.00,0.00,VWS V14.01,2013-09-21 10:26:00,
2013-09-21 05:30:00,66.1,64.6,29.69,ENE,66,0.0,3.0,95,0.00,,SKC,0.00,0.00,VWS V14.01,2013-09-21 10:30:00,
2013-09-21 05:31:00,66.1,64.6,29.69,ENE,66,0.0,3.0,95,0.00,,SKC,0.00,0.00,VWS V14.01,2013-09-21 10:31:00,
2013-09-21 05:36:00,66.1,64.6,29.69,ENE,66,2.0,4.0,95,0.00,,SKC,0.00,0.00,VWS V14.01,2013-09-21 10:36:00,
2013-09-21 05:40:00,66.1,64.6,29.69,ENE,66,1.0,4.0,95,0.00,,SKC,0.00,0.00,VWS V14.01,2013-09-21 10:40:00,
2013-09-21 05:41:00,66.1,64.6,29.69,ENE,66,0.0,4.0,95,0.00,,SKC,0.00,0.00,VWS V14.01,2013-09-21 10:41:00,
2013-09-21 05:46:00,66.1,64.6,29.69,ENE,66,0.0,4.0,95,0.00,,SKC,0.00,0.00,VWS V14.01,2013-09-21 10:46:00,
2013-09-21 05:50:00,66.0,64.5,29.69,ENE,66,3.0,4.0,95,0.00,,SKC,0.00,0.00,VWS V14.01,2013-09-21 10:50:00,
2013-09-21 05:52:00,66.0,64.5,29.69,ENE,66,3.0,4.0,95,0.00,,SKC,0.00,0.00,VWS V14.01,2013-09-21 10:52:00,
2013-09-21 05:56:00,66.0,64.5,29.69,ENE,66,4.0,4.0,95,0.00,,SKC,0.00,0.00,VWS V14.01,2013-09-21 10:56:00,
2013-09-21 06:00:00,66.0,64.5,29.69,ENE,66,0.0,4.0,95,0.00,,SKC,0.00,0.00,VWS V14.01,2013-09-21 11:00:00,
2013-09-21 06:01:00,66.0,64.5,29.69,ENE,66,0.0,4.0,95,0.00,,SKC,0.00,0.00,VWS V14.01,2013-09-21 11:01:00,
2013-09-21 06:06:00,65.9,64.4,29.69,ENE,66,0.0,4.0,95,0.00,,SKC,0.00,0.00,VWS V14.01,2013-09-21 11:06:00,
2013-09-21 06:10:00,65.9,64.4,29.70,ENE,66,4.0,5.0,95,0.00,,SKC,0.00,0.00,VWS V14.01,2013-09-21 11:10:00,
2013-09-21 06:11:00,65.9,64.4,29.70,ENE,66,4.0,5.0,95,0.00,,SKC,0.00,0.00,VWS V14.01,2013-09-21 11:11:00,
2013-09-21 06:16:00,65.9,64.4,29.70,ENE,66,0.0,4.0,95,0.00,,SKC,0.00,0.00,VWS V14.01,2013-09-21 11:16:00,
2013-09-21 06:20:00,65.8,64.0,29.70,ENE,66,0.0,4.0,94,0.00,,SKC,0.00,0.00,VWS V14.01,2013-09-21 11:20:00,
2013-09-21 06:21:00,65.8,64.0,29.70,ENE,66,0.0,4.0,94,0.00,,SKC,0.00,0.00,VWS V14.01,2013-09-21 11:21:00,
2013-09-21 06:26:00,65.8,64.3,29.70,ENE,66,0.0,3.0,95,0.00,,SKC,0.00,0.00,VWS V14.01,2013-09-21 11:26:00,
2013-09-21 06:30:00,65.7,64.2,29.70,ENE,66,2.0,5.0,95,0.00,,SKC,0.00,0.00,VWS V14.01,2013-09-21 11:30:00,
2013-09-21 06:31:00,65.7,64.2,29.70,ENE,66,2.0,5.0,95,0.00,,SKC,0.00,0.00,VWS V14.01,2013-09-21 11:31:00,
2013-09-21 06:36:00,65.6,64.1,29.70,ENE,66,2.0,4.0,95,0.00,,SKC,0.00,0.00,VWS V14.01,2013-09-21 11:36:00,
2013-09-21 06:40:00,65.5,64.0,29.71,ENE,66,3.0,8.0,95,0.00,,SKC,0.00,0.00,VWS V14.01,2013-09-21 11:40:00,
2013-09-21 06:41:00,65.5,64.0,29.71,ENE,66,1.0,8.0,95,0.00,,SKC,0.00,0.00,VWS V14.01,2013-09-21 11:41:00,
2013-09-21 06:46:00,65.5,63.7,29.71,ENE,66,0.0,4.0,94,0.00,,SKC,0.00,0.00,VWS V14.01,2013-09-21 11:46:00,
2013-09-21 06:50:00,65.5,64.0,29.71,ENE,66,2.0,4.0,95,0.00,,SKC,0.00,0.00,VWS V14.01,2013-09-21 11:50:00,
2013-09-21 06:51:00,65.5,64.0,29.71,ENE,66,2.0,4.0,95,0.00,,SKC,0.00,0.00,VWS V14.01,2013-09-21 11:51:00,
2013-09-21 06:56:00,65.4,63.9,29.72,ENE,66,3.0,5.0,95,0.00,,SKC,0.00,0.00,VWS V14.01,2013-09-21 11:56:00,
2013-09-21 07:00:00,65.4,63.9,29.71,ENE,66,3.0,5.0,95,0.00,,SKC,0.00,0.00,VWS V14.01,2013-09-21 12:00:00,
2013-09-21 07:01:00,65.4,63.9,29.71,ENE,66,3.0,5.0,95,0.00,,SKC,0.00,0.00,VWS V14.01,2013-09-21 12:01:00,
2013-09-21 07:06:00,65.4,63.6,29.71,ENE,66,0.0,6.0,94,0.00,,SKC,0.00,0.00,VWS V14.01,2013-09-21 12:06:00,
2013-09-21 07:10:00,65.3,63.5,29.72,ENE,66,0.0,6.0,94,0.00,,SKC,0.00,0.00,VWS V14.01,2013-09-21 12:10:00,
2013-09-21 07:11:00,65.3,63.5,29.72,ENE,66,0.0,6.0,94,0.00,,SKC,0.00,0.00,VWS V14.01,2013-09-21 12:11:00,
2013-09-21 07:16:00,65.3,63.5,29.72,ENE,66,0.0,6.0,94,0.00,,SKC,0.00,0.00,VWS V14.01,2013-09-21 12:16:00,
2013-09-21 07:20:00,65.3,63.5,29.72,ENE,66,2.0,6.0,94,0.00,,SKC,0.00,0.00,VWS V14.01,2013-09-21 12:20:00,
2013-09-21 07:21:00,65.3,63.5,29.72,ENE,66,3.0,6.0,94,0.00,,SKC,0.00,0.00,VWS V14.01,2013-09-21 12:21:00,
2013-09-21 07:26:00,65.3,63.5,29.72,ENE,66,1.0,4.0,94,0.00,,SKC,0.00,0.00,VWS V14.01,2013-09-21 12:26:00,
2013-09-21 07:30:00,65.2,63.4,29.73,ENE,66,0.0,6.0,94,0.00,,SKC,0.00,0.00,VWS V14.01,2013-09-21 12:30:00,
2013-09-21 07:31:00,65.2,63.4,29.73,ENE,66,0.0,6.0,94,0.00,,SKC,0.00,0.00,VWS V14.01,2013-09-21 12:31:00,
2013-09-21 07:36:00,65.2,63.4,29.73,ENE,66,4.0,5.0,94,0.00,,SKC,0.00,0.00,VWS V14.01,2013-09-21 12:36:00,
2013-09-21 07:40:00,65.1,63.3,29.73,ENE,66,0.0,8.0,94,0.00,,SKC,0.00,5.00,VWS V14.01,2013-09-21 12:40:00,
2013-09-21 07:41:00,65.1,63.3,29.73,ENE,66,2.0,8.0,94,0.00,,SKC,0.00,5.00,VWS V14.01,2013-09-21 12:41:00,
2013-09-21 07:46:00,64.6,62.8,29.74,ENE,66,2.0,8.0,94,0.00,,SKC,0.00,12.00,VWS V14.01,2013-09-21 12:46:00,
2013-09-21 07:50:00,63.9,61.8,29.74,ENE,66,3.0,8.0,93,0.00,,SKC,0.00,12.00,VWS V14.01,2013-09-21 12:50:00,
2013-09-21 07:51:00,63.9,61.8,29.74,ENE,66,2.0,8.0,93,0.00,,SKC,0.00,12.00,VWS V14.01,2013-09-21 12:51:00,
2013-09-21 07:56:00,63.3,61.2,29.75,ENE,66,2.0,7.0,93,0.00,,SKC,0.00,18.00,VWS V14.01,2013-09-21 12:56:00,
2013-09-21 08:00:00,63.0,61.0,29.74,ENE,66,1.0,7.0,93,0.00,,SKC,0.00,26.00,VWS V14.01,2013-09-21 13:00:00,
2013-09-21 08:01:00,63.0,61.0,29.74,ENE,66,2.0,7.0,93,0.00,,SKC,0.00,26.00,VWS V14.01,2013-09-21 13:01:00,
2013-09-21 08:06:00,62.9,60.8,29.74,ENE,66,5.0,10.0,93,0.00,,SKC,0.00,35.00,VWS V14.01,2013-09-21 13:06:00,
2013-09-21 08:10:00,62.8,60.8,29.75,ENE,66,5.0,10.0,93,0.00,,SKC,0.00,56.00,VWS V14.01,2013-09-21 13:10:00,
2013-09-21 08:11:00,62.8,60.8,29.75,ENE,66,4.0,10.0,93,0.00,,SKC,0.00,47.00,VWS V14.01,2013-09-21 13:11:00,
2013-09-21 08:16:00,62.8,60.8,29.75,ENE,66,0.0,6.0,93,0.00,,SKC,0.00,49.00,VWS V14.01,2013-09-21 13:16:00,
2013-09-21 08:20:00,62.8,60.8,29.75,ENE,66,3.0,6.0,93,0.00,,SKC,0.00,70.00,VWS V14.01,2013-09-21 13:20:00,
2013-09-21 08:21:00,62.8,60.8,29.75,ENE,66,2.0,6.0,93,0.00,,SKC,0.00,70.00,VWS V14.01,2013-09-21 13:21:00,
2013-09-21 08:26:00,62.9,60.8,29.75,ENE,66,4.0,5.0,93,0.00,,SKC,0.00,63.00,VWS V14.01,2013-09-21 13:26:00,
2013-09-21 08:30:00,62.9,60.8,29.75,ENE,66,1.0,7.0,93,0.00,,SKC,0.00,49.00,VWS V14.01,2013-09-21 13:30:00,
2013-09-21 08:31:00,62.9,60.8,29.75,ENE,66,0.0,7.0,93,0.00,,SKC,0.00,49.00,VWS V14.01,2013-09-21 13:31:00,
2013-09-21 08:36:00,62.9,60.8,29.76,ENE,66,4.0,7.0,93,0.00,,SKC,0.00,67.00,VWS V14.01,2013-09-21 13:36:00,
2013-09-21 08:40:00,62.9,60.8,29.76,ENE,66,3.0,10.0,93,0.00,,SKC,0.00,42.00,VWS V14.01,2013-09-21 13:40:00,
2013-09-21 08:41:00,62.9,60.8,29.76,ENE,66,5.0,10.0,93,0.00,,SKC,0.00,40.00,VWS V14.01,2013-09-21 13:41:00,
2013-09-21 08:46:00,62.8,60.8,29.76,ENE,66,3.0,6.0,93,0.00,,SKC,0.00,70.00,VWS V14.01,2013-09-21 13:46:00,
2013-09-21 08:50:00,62.8,60.8,29.76,ENE,66,4.0,6.0,93,0.00,,SKC,0.00,54.00,VWS V14.01,2013-09-21 13:50:00,
2013-09-21 08:51:00,62.8,60.8,29.76,ENE,66,5.0,6.0,93,0.00,,SKC,0.00,54.00,VWS V14.01,2013-09-21 13:51:00,
2013-09-21 08:56:00,62.8,60.8,29.76,ENE,66,3.0,7.0,93,0.00,,SKC,0.00,70.00,VWS V14.01,2013-09-21 13:56:00,
2013-09-21 09:00:00,62.9,60.8,29.76,ENE,66,0.0,7.0,93,0.00,,SKC,0.00,100.00,VWS V14.01,2013-09-21 14:00:00,
2013-09-21 09:01:00,62.8,60.8,29.76,ENE,66,2.0,7.0,93,0.00,,SKC,0.00,100.00,VWS V14.01,2013-09-21 14:01:00,
2013-09-21 09:06:00,62.9,60.5,29.76,ENE,66,3.0,7.0,92,0.00,,SKC,0.00,114.00,VWS V14.01,2013-09-21 14:06:00,
2013-09-21 09:10:00,62.9,60.5,29.76,ENE,66,3.0,7.0,92,0.00,,SKC,0.00,121.00,VWS V14.01,2013-09-21 14:10:00,
2013-09-21 09:11:00,62.9,60.5,29.76,ENE,66,4.0,7.0,92,0.00,,SKC,0.00,121.00,VWS V14.01,2013-09-21 14:11:00,
2013-09-21 09:16:00,63.0,60.6,29.77,ENE,66,5.0,6.0,92,0.00,,SKC,0.00,123.00,VWS V14.01,2013-09-21 14:16:00,
2013-09-21 09:20:00,63.0,60.6,29.76,ENE,66,6.0,8.0,92,0.00,,SKC,0.00,144.00,VWS V14.01,2013-09-21 14:20:00,
2013-09-21 09:21:00,63.0,60.6,29.76,ENE,66,3.0,8.0,92,0.00,,SKC,0.00,144.00,VWS V14.01,2013-09-21 14:21:00,
2013-09-21 09:26:00,63.1,60.4,29.76,ENE,66,7.0,8.0,91,0.00,,SKC,0.00,200.00,VWS V14.01,2013-09-21 14:26:00,
2013-09-21 09:30:00,63.4,60.7,29.77,ENE,66,5.0,10.0,91,0.00,,SKC,0.00,239.00,VWS V14.01,2013-09-21 14:30:00,
2013-09-21 09:31:00,63.4,60.7,29.77,ENE,66,5.0,10.0,91,0.00,,SKC,0.00,239.00,VWS V14.01,2013-09-21 14:31:00,
2013-09-21 09:36:00,63.7,61.0,29.77,ENE,66,3.0,7.0,91,0.00,,SKC,0.00,295.00,VWS V14.01,2013-09-21 14:36:00,
2013-09-21 09:40:00,64.1,61.4,29.77,ENE,66,1.0,7.0,91,0.00,,SKC,0.00,223.00,VWS V14.01,2013-09-21 14:40:00,
2013-09-21 09:41:00,64.1,61.4,29.77,ENE,66,2.0,7.0,91,0.00,,SKC,0.00,223.00,VWS V14.01,2013-09-21 14:41:00,
2013-09-21 09:46:00,64.1,61.1,29.77,ENE,66,2.0,8.0,90,0.00,,SKC,0.00,192.00,VWS V14.01,2013-09-21 14:46:00,
2013-09-21 09:50:00,64.0,60.7,29.77,ENE,66,2.0,8.0,89,0.00,,SKC,0.00,206.00,VWS V14.01,2013-09-21 14:50:00,
2013-09-21 09:51:00,64.0,60.7,29.77,ENE,66,4.0,8.0,89,0.00,,SKC,0.00,197.00,VWS V14.01,2013-09-21 14:51:00,
2013-09-21 09:56:00,64.2,60.9,29.77,ENE,66,6.0,10.0,89,0.00,,SKC,0.00,188.00,VWS V14.01,2013-09-21 14:56:00,
2013-09-21 10:00:00,64.4,61.1,29.77,ENE,66,4.0,10.0,89,0.00,,SKC,0.00,267.00,VWS V14.01,2013-09-21 15:00:00,
2013-09-21 10:01:00,64.4,61.1,29.77,ENE,66,4.0,10.0,89,0.00,,SKC,0.00,267.00,VWS V14.01,2013-09-21 15:01:00,
2013-09-21 10:06:00,64.7,61.1,29.77,ENE,66,3.0,11.0,88,0.00,,SKC,0.00,292.00,VWS V14.01,2013-09-21 15:06:00,
2013-09-21 10:10:00,65.2,61.6,29.77,ENE,66,6.0,11.0,88,0.00,,SKC,0.00,478.00,VWS V14.01,2013-09-21 15:10:00,
2013-09-21 10:11:00,65.2,61.9,29.77,ENE,66,5.0,11.0,89,0.00,,SKC,0.00,478.00,VWS V14.01,2013-09-21 15:11:00,
2013-09-21 10:16:00,65.6,61.3,29.78,ENE,66,3.0,10.0,86,0.00,,SKC,0.00,455.00,VWS V14.01,2013-09-21 15:16:00,
2013-09-21 10:20:00,66.0,61.4,29.78,ENE,66,3.0,12.0,85,0.00,,SKC,0.00,304.00,VWS V14.01,2013-09-21 15:20:00,
2013-09-21 10:21:00,66.0,61.4,29.78,ENE,66,2.0,12.0,85,0.00,,SKC,0.00,302.00,VWS V14.01,2013-09-21 15:21:00,
2013-09-21 10:27:00,66.0,61.4,29.78,ENE,66,6.0,13.0,85,0.00,,SKC,0.00,323.00,VWS V14.01,2013-09-21 15:27:00,
2013-09-21 10:30:00,66.1,61.5,29.78,ENE,66,5.0,13.0,85,0.00,,SKC,0.00,221.00,VWS V14.01,2013-09-21 15:30:00,
2013-09-21 10:32:00,66.1,61.5,29.78,ENE,66,4.0,5.0,85,0.00,,SKC,0.00,221.00,VWS V14.01,2013-09-21 15:32:00,
2013-09-21 10:37:00,66.2,61.6,29.78,ENE,66,7.0,10.0,85,0.00,,SKC,0.00,195.00,VWS V14.01,2013-09-21 15:37:00,
2013-09-21 10:40:00,67.0,62.0,29.78,ENE,66,5.0,10.0,84,0.00,,SKC,0.00,471.00,VWS V14.01,2013-09-21 15:40:00,
2013-09-21 10:42:00,67.0,62.0,29.78,ENE,66,6.0,6.0,84,0.00,,SKC,0.00,471.00,VWS V14.01,2013-09-21 15:42:00,
2013-09-21 10:47:00,67.7,62.0,29.79,ENE,66,1.0,10.0,82,0.00,,SKC,0.00,176.00,VWS V14.01,2013-09-21 15:47:00,
2013-09-21 10:50:00,67.6,61.9,29.78,ENE,66,2.0,10.0,82,0.00,,SKC,0.00,193.00,VWS V14.01,2013-09-21 15:50:00,
2013-09-21 10:52:00,67.6,61.9,29.78,ENE,66,1.0,2.0,82,0.00,,SKC,0.00,193.00,VWS V14.01,2013-09-21 15:52:00,
2013-09-21 10:57:00,67.1,61.1,29.79,ENE,66,2.0,7.0,81,0.00,,SKC,0.00,272.00,VWS V14.01,2013-09-21 15:57:00,
2013-09-21 11:00:00,67.1,61.8,29.78,ENE,66,4.0,8.0,83,0.00,,SKC,0.00,323.00,VWS V14.01,2013-09-21 16:00:00,
2013-09-21 11:02:00,67.1,61.8,29.78,ENE,66,4.0,4.0,83,0.00,,SKC,0.00,323.00,VWS V14.01,2013-09-21 16:02:00,
2013-09-21 11:07:00,67.9,62.2,29.78,ENE,66,7.0,10.0,82,0.00,,SKC,0.00,756.00,VWS V14.01,2013-09-21 16:07:00,
2013-09-21 11:10:00,69.1,62.7,29.78,ENE,66,4.0,10.0,80,0.00,,SKC,0.00,717.00,VWS V14.01,2013-09-21 16:10:00,
2013-09-21 11:12:00,69.1,62.7,29.78,ENE,66,4.0,10.0,80,0.00,,SKC,0.00,717.00,VWS V14.01,2013-09-21 16:12:00,
2013-09-21 11:17:00,69.5,62.3,29.78,ENE,66,4.0,8.0,78,0.00,,SKC,0.00,751.00,VWS V14.01,2013-09-21 16:17:00,
2013-09-21 11:20:00,69.8,62.6,29.78,ENE,66,8.0,8.0,78,0.00,,SKC,0.00,728.00,VWS V14.01,2013-09-21 16:20:00,
2013-09-21 11:22:00,69.9,62.4,29.78,ENE,66,7.0,8.0,77,0.00,,SKC,0.00,728.00,VWS V14.01,2013-09-21 16:22:00,
2013-09-21 11:27:00,70.6,62.7,29.78,ENE,66,11.0,11.0,76,0.00,,SKC,0.00,766.00,VWS V14.01,2013-09-21 16:27:00,
2013-09-21 11:30:00,70.6,62.3,29.78,ENE,66,3.0,11.0,75,0.00,,SKC,0.00,823.00,VWS V14.01,2013-09-21 16:30:00,
2013-09-21 11:32:00,70.6,62.3,29.78,ENE,66,3.0,11.0,75,0.00,,SKC,0.00,823.00,VWS V14.01,2013-09-21 16:32:00,
2013-09-21 11:36:00,70.5,62.2,29.78,ENE,66,7.0,14.0,75,0.00,,SKC,0.00,751.00,VWS V14.01,2013-09-21 16:36:00,
2013-09-21 11:40:00,70.8,61.7,29.78,ENE,66,5.0,15.0,73,0.00,,SKC,0.00,761.00,VWS V14.01,2013-09-21 16:40:00,
2013-09-21 11:41:00,70.8,61.7,29.78,ENE,66,5.0,5.0,73,0.00,,SKC,0.00,766.00,VWS V14.01,2013-09-21 16:41:00,
2013-09-21 11:46:00,71.2,62.1,29.77,ENE,66,4.0,10.0,73,0.00,,SKC,0.00,770.00,VWS V14.01,2013-09-21 16:46:00,
2013-09-21 11:50:00,71.5,62.0,29.77,ENE,66,2.0,10.0,72,0.00,,SKC,0.00,786.00,VWS V14.01,2013-09-21 16:50:00,
2013-09-21 11:51:00,71.5,62.0,29.77,ENE,66,2.0,10.0,72,0.00,,SKC,0.00,786.00,VWS V14.01,2013-09-21 16:51:00,
2013-09-21 11:56:00,71.9,61.6,29.78,ENE,66,0.0,12.0,70,0.00,,SKC,0.00,793.00,VWS V14.01,2013-09-21 16:56:00,
2013-09-21 12:00:00,72.4,62.1,29.77,ENE,66,8.0,12.0,70,0.00,,SKC,0.00,798.00,VWS V14.01,2013-09-21 17:00:00,
2013-09-21 12:01:00,72.4,62.1,29.77,ENE,66,8.0,12.0,70,0.00,,SKC,0.00,798.00,VWS V14.01,2013-09-21 17:01:00,
2013-09-21 12:06:00,72.5,62.2,29.77,ENE,66,7.0,12.0,70,0.00,,SKC,0.00,805.00,VWS V14.01,2013-09-21 17:06:00,
2013-09-21 12:10:00,72.5,61.3,29.76,ENE,66,5.0,12.0,68,0.00,,SKC,0.00,814.00,VWS V14.01,2013-09-21 17:10:00,
2013-09-21 12:11:00,72.5,61.3,29.76,ENE,66,5.0,12.0,68,0.00,,SKC,0.00,814.00,VWS V14.01,2013-09-21 17:11:00,
2013-09-21 12:16:00,72.4,61.7,29.76,ENE,66,8.0,14.0,69,0.00,,SKC,0.00,824.00,VWS V14.01,2013-09-21 17:16:00,
2013-09-21 12:20:00,73.0,61.4,29.76,ENE,66,10.0,14.0,67,0.00,,SKC,0.00,837.00,VWS V14.01,2013-09-21 17:20:00,
2013-09-21 12:21:00,73.0,61.4,29.76,ENE,66,11.0,11.0,67,0.00,,SKC,0.00,837.00,VWS V14.01,2013-09-21 17:21:00,
2013-09-21 12:26:00,73.3,60.4,29.76,ENE,66,10.0,11.0,64,0.00,,SKC,0.00,838.00,VWS V14.01,2013-09-21 17:26:00,
2013-09-21 12:30:00,73.8,60.9,29.76,ENE,66,5.0,11.0,64,0.00,,SKC,0.00,847.00,VWS V14.01,2013-09-21 17:30:00,
2013-09-21 12:31:00,73.8,60.9,29.76,ENE,66,5.0,11.0,64,0.00,,SKC,0.00,847.00,VWS V14.01,2013-09-21 17:31:00,
2013-09-21 12:36:00,74.3,60.9,29.76,ENE,66,15.0,15.0,63,0.00,,SKC,0.00,851.00,VWS V14.01,2013-09-21 17:36:00,
2013-09-21 12:40:00,74.5,60.6,29.76,ENE,66,3.0,15.0,62,0.00,,SKC,0.00,856.00,VWS V14.01,2013-09-21 17:40:00,
2013-09-21 12:41:00,74.5,60.6,29.76,ENE,66,3.0,15.0,62,0.00,,SKC,0.00,856.00,VWS V14.01,2013-09-21 17:41:00,
2013-09-21 12:46:00,74.8,59.5,29.76,ENE,66,3.0,12.0,59,0.00,,SKC,0.00,865.00,VWS V14.01,2013-09-21 17:46:00,
2013-09-21 12:50:00,74.4,59.2,29.76,ENE,66,0.0,12.0,59,0.00,,SKC,0.00,865.00,VWS V14.01,2013-09-21 17:50:00,
2013-09-21 12:51:00,74.4,59.2,29.76,ENE,66,0.0,12.0,59,0.00,,SKC,0.00,865.00,VWS V14.01,2013-09-21 17:51:00,
2013-09-21 12:56:00,74.8,59.0,29.75,ENE,66,5.0,11.0,58,0.00,,SKC,0.00,872.00,VWS V14.01,2013-09-21 17:56:00,
2013-09-21 13:00:00,75.3,58.5,29.76,ENE,66,5.0,11.0,56,0.00,,SKC,0.00,875.00,VWS V14.01,2013-09-21 18:00:00,
2013-09-21 13:01:00,75.3,58.0,29.76,ENE,66,4.0,11.0,55,0.00,,SKC,0.00,875.00,VWS V14.01,2013-09-21 18:01:00,
2013-09-21 13:06:00,75.1,58.8,29.75,ENE,66,3.0,14.0,57,0.00,,SKC,0.00,879.00,VWS V14.01,2013-09-21 18:06:00,
2013-09-21 13:10:00,76.5,60.2,29.75,ENE,66,0.0,14.0,57,0.00,,SKC,0.00,882.00,VWS V14.01,2013-09-21 18:10:00,
2013-09-21 13:11:00,76.5,60.2,29.75,ENE,66,0.0,14.0,57,0.00,,SKC,0.00,882.00,VWS V14.01,2013-09-21 18:11:00,
2013-09-21 13:16:00,75.8,58.0,29.75,ENE,66,3.0,11.0,54,0.00,,SKC,0.00,882.00,VWS V14.01,2013-09-21 18:16:00,
2013-09-21 13:20:00,75.3,58.0,29.74,ENE,66,3.0,11.0,55,0.00,,SKC,0.00,884.00,VWS V14.01,2013-09-21 18:20:00,
2013-09-21 13:21:00,75.3,58.0,29.74,ENE,66,3.0,11.0,55,0.00,,SKC,0.00,884.00,VWS V14.01,2013-09-21 18:21:00,
2013-09-21 13:26:00,76.0,57.7,29.74,ENE,66,6.0,10.0,53,0.00,,SKC,0.00,886.00,VWS V14.01,2013-09-21 18:26:00,
2013-09-21 13:30:00,75.5,57.2,29.74,ENE,66,5.0,11.0,53,0.00,,SKC,0.00,886.00,VWS V14.01,2013-09-21 18:30:00,
2013-09-21 13:31:00,75.5,57.2,29.74,ENE,66,5.0,11.0,53,0.00,,SKC,0.00,886.00,VWS V14.01,2013-09-21 18:31:00,
2013-09-21 13:36:00,76.6,58.2,29.74,ENE,66,4.0,8.0,53,0.00,,SKC,0.00,888.00,VWS V14.01,2013-09-21 18:36:00,
2013-09-21 13:40:00,76.6,57.1,29.74,ENE,66,8.0,13.0,51,0.00,,SKC,0.00,886.00,VWS V14.01,2013-09-21 18:40:00,
2013-09-21 13:41:00,76.6,57.1,29.74,ENE,66,6.0,13.0,51,0.00,,SKC,0.00,886.00,VWS V14.01,2013-09-21 18:41:00,
2013-09-21 13:46:00,77.0,57.0,29.73,ENE,66,3.0,11.0,50,0.00,,SKC,0.00,884.00,VWS V14.01,2013-09-21 18:46:00,
2013-09-21 13:50:00,77.6,55.2,29.73,ENE,66,6.0,11.0,46,0.00,,SKC,0.00,889.00,VWS V14.01,2013-09-21 18:50:00,
2013-09-21 13:51:00,77.6,55.2,29.73,ENE,66,5.0,11.0,46,0.00,,SKC,0.00,889.00,VWS V14.01,2013-09-21 18:51:00,
2013-09-21 13:56:00,77.9,54.9,29.73,ENE,66,3.0,8.0,45,0.00,,SKC,0.00,886.00,VWS V14.01,2013-09-21 18:56:00,
2013-09-21 14:00:00,77.9,53.6,29.73,ENE,66,5.0,10.0,43,0.00,,SKC,0.00,884.00,VWS V14.01,2013-09-21 19:00:00,
2013-09-21 14:01:00,78.0,53.7,29.73,ENE,66,7.0,10.0,43,0.00,,SKC,0.00,884.00,VWS V14.01,2013-09-21 19:01:00,
2013-09-21 14:06:00,78.2,52.6,29.72,ENE,66,0.0,5.0,41,0.00,,SKC,0.00,884.00,VWS V14.01,2013-09-21 19:06:00,
2013-09-21 14:10:00,78.2,54.5,29.72,ENE,66,5.0,7.0,44,0.00,,SKC,0.00,882.00,VWS V14.01,2013-09-21 19:10:00,
2013-09-21 14:11:00,78.1,54.4,29.72,ENE,66,0.0,7.0,44,0.00,,SKC,0.00,882.00,VWS V14.01,2013-09-21 19:11:00,
2013-09-21 14:16:00,78.5,53.5,29.72,ENE,66,0.0,7.0,42,0.00,,SKC,0.00,879.00,VWS V14.01,2013-09-21 19:16:00,
2013-09-21 14:20:00,78.5,51.5,29.72,ENE,66,8.0,8.0,39,0.00,,SKC,0.00,874.00,VWS V14.01,2013-09-21 19:20:00,
2013-09-21 14:21:00,78.7,51.7,29.72,ENE,66,0.0,8.0,39,0.00,,SKC,0.00,874.00,VWS V14.01,2013-09-21 19:21:00,
2013-09-21 14:26:00,78.8,53.8,29.71,ENE,66,4.0,10.0,42,0.00,,SKC,0.00,870.00,VWS V14.01,2013-09-21 19:26:00,
2013-09-21 14:30:00,78.5,53.5,29.71,ENE,66,0.0,10.0,42,0.00,,SKC,0.00,865.00,VWS V14.01,2013-09-21 19:30:00,
2013-09-21 14:31:00,78.5,53.5,29.71,ENE,66,5.0,10.0,42,0.00,,SKC,0.00,865.00,VWS V14.01,2013-09-21 19:31:00,
2013-09-21 14:36:00,78.6,53.0,29.71,ENE,66,5.0,11.0,41,0.00,,SKC,0.00,858.00,VWS V14.01,2013-09-21 19:36:00,
2013-09-21 14:40:00,80.1,56.2,29.70,ENE,66,0.0,11.0,44,0.00,,SKC,0.00,853.00,VWS V14.01,2013-09-21 19:40:00,
2013-09-21 14:41:00,80.0,56.2,29.70,ENE,66,1.0,11.0,44,0.00,,SKC,0.00,853.00,VWS V14.01,2013-09-21 19:41:00,
2013-09-21 14:46:00,79.8,52.7,29.71,ENE,66,8.0,11.0,39,0.00,,SKC,0.00,846.00,VWS V14.01,2013-09-21 19:46:00,
2013-09-21 14:50:00,79.1,52.7,29.71,ENE,66,3.0,11.0,40,0.00,,SKC,0.00,840.00,VWS V14.01,2013-09-21 19:50:00,
2013-09-21 14:51:00,79.1,52.7,29.71,ENE,66,6.0,11.0,40,0.00,,SKC,0.00,840.00,VWS V14.01,2013-09-21 19:51:00,
2013-09-21 14:56:00,78.9,52.5,29.70,ENE,66,5.0,11.0,40,0.00,,SKC,0.00,835.00,VWS V14.01,2013-09-21 19:56:00,
2013-09-21 15:00:00,79.1,53.4,29.70,ENE,66,6.0,11.0,41,0.00,,SKC,0.00,826.00,VWS V14.01,2013-09-21 20:00:00,
2013-09-21 15:01:00,79.0,53.3,29.70,ENE,66,4.0,11.0,41,0.00,,SKC,0.00,826.00,VWS V14.01,2013-09-21 20:01:00,
2013-09-21 15:06:00,79.3,50.8,29.70,ENE,66,4.0,10.0,37,0.00,,SKC,0.00,817.00,VWS V14.01,2013-09-21 20:06:00,
2013-09-21 15:10:00,79.2,52.8,29.70,ENE,66,6.0,10.0,40,0.00,,SKC,0.00,810.00,VWS V14.01,2013-09-21 20:10:00,
2013-09-21 15:11:00,79.2,52.1,29.70,ENE,66,8.0,10.0,39,0.00,,SKC,0.00,810.00,VWS V14.01,2013-09-21 20:11:00,
2013-09-21 15:16:00,79.3,52.2,29.70,ENE,66,2.0,12.0,39,0.00,,SKC,0.00,800.00,VWS V14.01,2013-09-21 20:16:00,
2013-09-21 15:20:00,79.5,52.4,29.70,ENE,68,5.0,14.0,39,0.00,,SKC,0.00,800.00,VWS V14.01,2013-09-21 20:20:00,
2013-09-21 15:30:00,80.1,54.3,29.69,ENE,68,3.0,10.0,41,0.00,,SKC,0.00,780.00,VWS V14.01,2013-09-21 20:30:00,
2013-09-21 15:49:00,80.7,52.8,29.68,ENE,66,5.0,5.0,38,0.00,,SKC,0.00,731.00,VWS V14.01,2013-09-21 20:49:00,
2013-09-21 15:50:00,80.8,53.6,29.68,ENE,66,7.0,8.0,39,0.00,,SKC,0.00,728.00,VWS V14.01,2013-09-21 20:50:00,
2013-09-21 15:54:00,80.9,52.2,29.68,ENE,66,2.0,12.0,37,0.00,,SKC,0.00,722.00,VWS V14.01,2013-09-21 20:54:00,
2013-09-21 15:59:00,80.7,52.8,29.68,ENE,66,1.0,12.0,38,0.00,,SKC,0.00,708.00,VWS V14.01,2013-09-21 20:59:00,
2013-09-21 16:00:00,80.8,52.8,29.68,ENE,66,10.0,12.0,38,0.00,,SKC,0.00,703.00,VWS V14.01,2013-09-21 21:00:00,
2013-09-21 16:05:00,80.7,51.3,29.67,ENE,66,5.0,10.0,36,0.00,,SKC,0.00,696.00,VWS V14.01,2013-09-21 21:05:00,
2013-09-21 16:10:00,80.2,51.6,29.67,ENE,66,3.0,10.0,37,0.00,,SKC,0.00,682.00,VWS V14.01,2013-09-21 21:10:00,
2013-09-21 16:15:00,80.9,52.9,29.68,ENE,66,5.0,6.0,38,0.00,,SKC,0.00,670.00,VWS V14.01,2013-09-21 21:15:00,
2013-09-21 16:20:00,80.8,51.4,29.67,ENE,66,6.0,7.0,36,0.00,,SKC,0.00,656.00,VWS V14.01,2013-09-21 21:20:00,
2013-09-21 16:25:00,80.9,52.2,29.67,ENE,66,3.0,5.0,37,0.00,,SKC,0.00,642.00,VWS V14.01,2013-09-21 21:25:00,
2013-09-21 16:30:00,81.0,51.6,29.67,ENE,66,8.0,11.0,36,0.00,,SKC,0.00,628.00,VWS V14.01,2013-09-21 21:30:00,
2013-09-21 16:35:00,80.7,51.3,29.67,ENE,66,6.0,10.0,36,0.00,,SKC,0.00,612.00,VWS V14.01,2013-09-21 21:35:00,
2013-09-21 16:40:00,81.0,51.6,29.67,ENE,66,0.0,11.0,36,0.00,,SKC,0.00,599.00,VWS V14.01,2013-09-21 21:40:00,
2013-09-21 16:45:00,81.2,52.5,29.67,ENE,66,5.0,8.0,37,0.00,,SKC,0.00,584.00,VWS V14.01,2013-09-21 21:45:00,
2013-09-21 16:50:00,81.3,53.3,29.67,ENE,66,3.0,8.0,38,0.00,,SKC,0.00,568.00,VWS V14.01,2013-09-21 21:50:00,
2013-09-21 16:55:00,81.3,51.8,29.67,ENE,66,7.0,10.0,36,0.00,,SKC,0.00,552.00,VWS V14.01,2013-09-21 21:55:00,
2013-09-21 17:00:00,81.3,51.1,29.67,ENE,66,5.0,12.0,35,0.00,,SKC,0.00,534.00,VWS V14.01,2013-09-21 22:00:00,
2013-09-21 17:04:00,81.0,51.6,29.67,ENE,66,4.0,7.0,36,0.00,,SKC,0.00,515.00,VWS V14.01,2013-09-21 22:04:00,
2013-09-21 17:10:00,81.1,52.4,29.67,ENE,66,3.0,7.0,37,0.00,,SKC,0.00,497.00,VWS V14.01,2013-09-21 22:10:00,
2013-09-21 17:14:00,80.9,52.2,29.66,ENE,66,0.0,5.0,37,0.00,,SKC,0.00,485.00,VWS V14.01,2013-09-21 22:14:00,
2013-09-21 17:20:00,80.9,52.9,29.66,ENE,66,3.0,8.0,38,0.00,,SKC,0.00,469.00,VWS V14.01,2013-09-21 22:20:00,
2013-09-21 17:25:00,81.1,53.1,29.66,ENE,66,3.0,8.0,38,0.00,,SKC,0.00,450.00,VWS V14.01,2013-09-21 22:25:00,
2013-09-21 17:30:00,80.9,52.2,29.66,ENE,66,0.0,10.0,37,0.00,,SKC,0.00,432.00,VWS V14.01,2013-09-21 22:30:00,
2013-09-21 17:35:00,80.5,52.6,29.66,ENE,66,6.0,8.0,38,0.00,,SKC,0.00,413.00,VWS V14.01,2013-09-21 22:35:00,
2013-09-21 17:40:00,81.1,53.8,29.66,ENE,66,0.0,8.0,39,0.00,,SKC,0.00,397.00,VWS V14.01,2013-09-21 22:40:00,
2013-09-21 17:45:00,81.3,52.6,29.65,ENE,66,2.0,5.0,37,0.00,,SKC,0.00,378.00,VWS V14.01,2013-09-21 22:45:00,
2013-09-21 17:50:00,81.2,52.5,29.66,ENE,66,0.0,6.0,37,0.00,,SKC,0.00,359.00,VWS V14.01,2013-09-21 22:50:00,
2013-09-21 17:55:00,81.0,52.3,29.65,ENE,66,0.0,5.0,37,0.00,,SKC,0.00,343.00,VWS V14.01,2013-09-21 22:55:00,
2013-09-21 18:00:00,81.2,52.5,29.65,ENE,66,4.0,8.0,37,0.00,,SKC,0.00,325.00,VWS V14.01,2013-09-21 23:00:00,
2013-09-21 18:05:00,80.6,52.0,29.65,ENE,66,0.0,8.0,37,0.00,,SKC,0.00,306.00,VWS V14.01,2013-09-21 23:05:00,
2013-09-21 18:10:00,80.6,53.4,29.65,ENE,66,3.0,8.0,39,0.00,,SKC,0.00,287.00,VWS V14.01,2013-09-21 23:10:00,
2013-09-21 18:15:00,80.5,51.9,29.65,ENE,66,4.0,6.0,37,0.00,,SKC,0.00,267.00,VWS V14.01,2013-09-21 23:15:00,
2013-09-21 18:20:00,80.3,50.9,29.65,ENE,66,4.0,6.0,36,0.00,,SKC,0.00,246.00,VWS V14.01,2013-09-21 23:20:00,
2013-09-21 18:25:00,80.2,51.6,29.65,ENE,66,2.0,3.0,37,0.00,,SKC,0.00,227.00,VWS V14.01,2013-09-21 23:25:00,
2013-09-21 18:30:00,80.2,51.6,29.65,ENE,66,0.0,4.0,37,0.00,,SKC,0.00,202.00,VWS V14.01,2013-09-21 23:30:00,
2013-09-21 18:35:00,79.9,52.0,29.65,ENE,66,0.0,3.0,38,0.00,,SKC,0.00,179.00,VWS V14.01,2013-09-21 23:35:00,
2013-09-21 18:40:00,79.7,51.2,29.65,ENE,66,2.0,5.0,37,0.00,,SKC,0.00,156.00,VWS V14.01,2013-09-21 23:40:00,
2013-09-21 18:45:00,79.5,51.0,29.65,ENE,66,3.0,4.0,37,0.00,,SKC,0.00,132.00,VWS V14.01,2013-09-21 23:45:00,
2013-09-21 18:50:00,79.2,51.4,29.65,ENE,66,1.0,6.0,38,0.00,,SKC,0.00,109.00,VWS V14.01,2013-09-21 23:50:00,
2013-09-21 18:55:00,78.9,51.2,29.65,ENE,66,0.0,4.0,38,0.00,,SKC,0.00,88.00,VWS V14.01,2013-09-21 23:55:00,
2013-09-21 19:00:00,78.7,51.0,29.65,ENE,66,1.0,4.0,38,0.00,,SKC,0.00,69.00,VWS V14.01,2013-09-22 00:00:00,
2013-09-21 19:05:00,78.4,50.7,29.65,ENE,66,1.0,5.0,38,0.00,,SKC,0.00,54.00,VWS V14.01,2013-09-22 00:05:00,
2013-09-21 19:10:00,78.1,51.8,29.65,ENE,66,0.0,5.0,40,0.00,,SKC,0.00,39.00,VWS V14.01,2013-09-22 00:10:00,
2013-09-21 19:15:00,77.7,50.1,29.65,ENE,66,0.0,2.0,38,0.00,,SKC,0.00,26.00,VWS V14.01,2013-09-22 00:15:00,
2013-09-21 19:20:00,77.3,50.4,29.65,ENE,66,0.0,2.0,39,0.00,,SKC,0.00,16.00,VWS V14.01,2013-09-22 00:20:00,
2013-09-21 19:25:00,76.6,51.2,29.65,ENE,66,0.0,2.0,41,0.00,,SKC,0.00,11.00,VWS V14.01,2013-09-22 00:25:00,
2013-09-21 19:30:00,75.5,52.1,29.65,ENE,66,0.0,2.0,44,0.00,,SKC,0.00,7.00,VWS V14.01,2013-09-22 00:30:00,
2013-09-21 19:35:00,74.8,51.5,29.65,ENE,66,0.0,0.0,44,0.00,,SKC,0.00,0.00,VWS V14.01,2013-09-22 00:35:00,
2013-09-21 19:40:00,74.4,51.7,29.65,ENE,66,0.0,0.0,45,0.00,,SKC,0.00,0.00,VWS V14.01,2013-09-22 00:40:00,
2013-09-21 19:45:00,74.0,51.3,29.65,ENE,66,0.0,0.0,45,0.00,,SKC,0.00,0.00,VWS V14.01,2013-09-22 00:45:00,
2013-09-21 19:50:00,73.6,52.2,29.65,ENE,66,0.0,0.0,47,0.00,,SKC,0.00,0.00,VWS V14.01,2013-09-22 00:50:00,
2013-09-21 19:55:00,73.0,51.6,29.65,ENE,66,0.0,0.0,47,0.00,,SKC,0.00,0.00,VWS V14.01,2013-09-22 00:55:00,
2013-09-21 20:00:00,72.5,51.7,29.65,ENE,66,0.0,0.0,48,0.00,,SKC,0.00,0.00,VWS V14.01,2013-09-22 01:00:00,
2013-09-21 20:05:00,72.3,51.5,29.65,ENE,66,0.0,0.0,48,0.00,,SKC,0.00,0.00,VWS V14.01,2013-09-22 01:05:00,
2013-09-21 20:10:00,72.0,52.4,29.66,ENE,66,0.0,0.0,50,0.00,,SKC,0.00,0.00,VWS V14.01,2013-09-22 01:10:00,
2013-09-21 20:15:00,71.6,52.0,29.65,ENE,66,0.0,0.0,50,0.00,,SKC,0.00,0.00,VWS V14.01,2013-09-22 01:15:00,
2013-09-21 20:20:00,71.6,51.5,29.65,ENE,66,0.0,0.0,49,0.00,,SKC,0.00,0.00,VWS V14.01,2013-09-22 01:20:00,
2013-09-21 20:25:00,71.4,51.8,29.66,ENE,66,0.0,0.0,50,0.00,,SKC,0.00,0.00,VWS V14.01,2013-09-22 01:25:00,
2013-09-21 20:30:00,70.7,51.2,29.66,ENE,66,0.0,1.0,50,0.00,,SKC,0.00,0.00,VWS V14.01,2013-09-22 01:30:00,
2013-09-21 20:35:00,70.1,51.2,29.66,ENE,66,0.0,0.0,51,0.00,,SKC,0.00,0.00,VWS V14.01,2013-09-22 01:35:00,
2013-09-21 20:40:00,70.1,51.2,29.67,ENE,66,0.0,0.0,51,0.00,,SKC,0.00,0.00,VWS V14.01,2013-09-22 01:40:00,
2013-09-21 20:45:00,69.7,50.8,29.67,ENE,66,0.0,0.0,51,0.00,,SKC,0.00,0.00,VWS V14.01,2013-09-22 01:45:00,
2013-09-21 20:50:00,69.4,51.5,29.66,ENE,66,0.0,0.0,53,0.00,,SKC,0.00,0.00,VWS V14.01,2013-09-22 01:50:00,
2013-09-21 20:55:00,69.1,51.3,29.67,ENE,66,0.0,0.0,53,0.00,,SKC,0.00,0.00,VWS V14.01,2013-09-22 01:55:00,
2013-09-21 21:00:00,69.0,51.2,29.67,ENE,66,0.0,0.0,53,0.00,,SKC,0.00,0.00,VWS V14.01,2013-09-22 02:00:00,
2013-09-21 21:05:00,68.9,50.0,29.67,ENE,66,0.0,0.0,51,0.00,,SKC,0.00,0.00,VWS V14.01,2013-09-22 02:05:00,
2013-09-21 21:10:00,69.5,49.5,29.67,ENE,66,0.0,0.0,49,0.00,,SKC,0.00,0.00,VWS V14.01,2013-09-22 02:10:00,
2013-09-21 21:15:00,69.5,51.1,29.68,ENE,66,0.0,0.0,52,0.00,,SKC,0.00,0.00,VWS V14.01,2013-09-22 02:15:00,
2013-09-21 21:20:00,68.8,50.5,29.68,ENE,66,0.0,0.0,52,0.00,,SKC,0.00,0.00,VWS V14.01,2013-09-22 02:20:00,
2013-09-21 21:25:00,68.3,51.0,29.68,ENE,66,0.0,0.0,54,0.00,,SKC,0.00,0.00,VWS V14.01,2013-09-22 02:25:00,
2013-09-21 21:30:00,67.6,51.4,29.68,ENE,66,0.0,0.0,56,0.00,,SKC,0.00,0.00,VWS V14.01,2013-09-22 02:30:00,
2013-09-21 21:35:00,67.3,50.1,29.68,ENE,66,0.0,0.0,54,0.00,,SKC,0.00,0.00,VWS V14.01,2013-09-22 02:35:00,
2013-09-21 21:40:00,67.1,50.4,29.68,ENE,66,0.0,1.0,55,0.00,,SKC,0.00,0.00,VWS V14.01,2013-09-22 02:40:00,
2013-09-21 21:45:00,67.1,49.9,29.68,ENE,66,0.0,0.0,54,0.00,,SKC,0.00,0.00,VWS V14.01,2013-09-22 02:45:00,
2013-09-21 21:50:00,66.9,49.7,29.68,ENE,66,0.0,0.0,54,0.00,,SKC,0.00,0.00,VWS V14.01,2013-09-22 02:50:00,
2013-09-21 21:55:00,66.6,49.5,29.68,ENE,66,0.0,0.0,54,0.00,,SKC,0.00,0.00,VWS V14.01,2013-09-22 02:55:00,
2013-09-21 22:00:00,66.4,50.2,29.68,ENE,66,0.0,0.0,56,0.00,,SKC,0.00,0.00,VWS V14.01,2013-09-22 03:00:00,
2013-09-21 22:05:00,65.6,50.9,29.68,ENE,66,0.0,0.0,59,0.00,,SKC,0.00,0.00,VWS V14.01,2013-09-22 03:05:00,
2013-09-21 22:10:00,65.4,49.8,29.68,ENE,66,0.0,0.0,57,0.00,,SKC,0.00,0.00,VWS V14.01,2013-09-22 03:10:00,
2013-09-21 22:15:00,65.7,49.6,29.68,ENE,66,0.0,0.0,56,0.00,,SKC,0.00,0.00,VWS V14.01,2013-09-22 03:15:00,
2013-09-21 22:20:00,65.9,49.3,29.68,ENE,66,0.0,0.0,55,0.00,,SKC,0.00,0.00,VWS V14.01,2013-09-22 03:20:00,
2013-09-21 22:25:00,66.1,49.5,29.69,ENE,66,0.0,0.0,55,0.00,,SKC,0.00,0.00,VWS V14.01,2013-09-22 03:25:00,
2013-09-21 22:30:00,66.3,49.2,29.69,ENE,66,0.0,0.0,54,0.00,,SKC,0.00,0.00,VWS V14.01,2013-09-22 03:30:00,
2013-09-21 22:35:00,66.1,49.0,29.69,ENE,66,0.0,0.0,54,0.00,,SKC,0.00,0.00,VWS V14.01,2013-09-22 03:35:00,
2013-09-21 22:40:00,65.9,48.8,29.69,ENE,66,0.0,0.0,54,0.00,,SKC,0.00,0.00,VWS V14.01,2013-09-22 03:40:00,
2013-09-21 22:45:00,66.1,48.5,29.69,ENE,66,0.0,0.0,53,0.00,,SKC,0.00,0.00,VWS V14.01,2013-09-22 03:45:00,
2013-09-21 22:50:00,66.1,48.5,29.69,ENE,66,0.0,0.0,53,0.00,,SKC,0.00,0.00,VWS V14.01,2013-09-22 03:50:00,
2013-09-21 22:55:00,66.2,48.6,29.69,ENE,66,0.0,0.0,53,0.00,,SKC,0.00,0.00,VWS V14.01,2013-09-22 03:55:00,
2013-09-21 23:00:00,65.8,48.7,29.69,ENE,66,0.0,0.0,54,0.00,,SKC,0.00,0.00,VWS V14.01,2013-09-22 04:00:00,
2013-09-21 23:01:00,65.7,48.6,29.69,ENE,66,0.0,0.0,54,0.00,,SKC,0.00,0.00,VWS V14.01,2013-09-22 04:01:00,
2013-09-21 23:02:00,65.6,49.0,29.69,ENE,66,0.0,0.0,55,0.00,,SKC,0.00,0.00,VWS V14.01,2013-09-22 04:02:00,
2013-09-21 23:07:00,65.5,49.4,29.69,ENE,66,0.0,0.0,56,0.00,,SKC,0.00,0.00,VWS V14.01,2013-09-22 04:07:00,
2013-09-21 23:10:00,65.0,49.9,29.69,ENE,66,0.0,1.0,58,0.00,,SKC,0.00,0.00,VWS V14.01,2013-09-22 04:10:00,
2013-09-21 23:12:00,65.0,49.9,29.69,ENE,66,0.0,0.0,58,0.00,,SKC,0.00,0.00,VWS V14.01,2013-09-22 04:12:00,
2013-09-21 23:17:00,64.8,50.2,29.69,ENE,66,0.0,0.0,59,0.00,,SKC,0.00,0.00,VWS V14.01,2013-09-22 04:17:00,
2013-09-21 23:20:00,64.7,50.1,29.69,ENE,66,0.0,0.0,59,0.00,,SKC,0.00,0.00,VWS V14.01,2013-09-22 04:20:00,
2013-09-21 23:22:00,64.7,50.1,29.70,ENE,66,0.0,0.0,59,0.00,,SKC,0.00,0.00,VWS V14.01,2013-09-22 04:22:00,
2013-09-21 23:27:00,64.7,49.1,29.70,ENE,66,0.0,0.0,57,0.00,,SKC,0.00,0.00,VWS V14.01,2013-09-22 04:27:00,
2013-09-21 23:30:00,65.2,49.6,29.70,ENE,66,0.0,0.0,57,0.00,,SKC,0.00,0.00,VWS V14.01,2013-09-22 04:30:00,
2013-09-21 23:32:00,65.2,49.6,29.70,ENE,66,0.0,0.0,57,0.00,,SKC,0.00,0.00,VWS V14.01,2013-09-22 04:32:00,
2013-09-21 23:37:00,65.5,48.9,29.70,ENE,66,0.0,0.0,55,0.00,,SKC,0.00,0.00,VWS V14.01,2013-09-22 04:37:00,
2013-09-21 23:40:00,65.5,49.4,29.70,ENE,66,0.0,0.0,56,0.00,,SKC,0.00,0.00,VWS V14.01,2013-09-22 04:40:00,
2013-09-21 23:42:00,65.5,49.4,29.70,ENE,66,0.0,0.0,56,0.00,,SKC,0.00,0.00,VWS V14.01,2013-09-22 04:42:00,
2013-09-21 23:47:00,65.3,49.2,29.70,ENE,66,0.0,0.0,56,0.00,,SKC,0.00,0.00,VWS V14.01,2013-09-22 04:47:00,
2013-09-21 23:50:00,65.2,49.6,29.70,ENE,66,0.0,0.0,57,0.00,,SKC,0.00,0.00,VWS V14.01,2013-09-22 04:50:00,
2013-09-21 23:52:00,65.2,49.6,29.70,ENE,66,0.0,0.0,57,0.00,,SKC,0.00,0.00,VWS V14.01,2013-09-22 04:52:00,
2013-09-21 23:57:00,65.2,49.1,29.70,ENE,66,0.0,0.0,56,0.00,,SKC,0.00,0.00,VWS V14.01,2013-09-22 04:57:00,